createdAt,value
2019-04-14T00:00:53.279Z,2.10
2019-04-14T00:03:36.849Z,2.00
2019-04-14T00:06:11.863Z,2.00
2019-04-14T00:08:47.982Z,2.17
2019-04-14T00:11:19.077Z,2.27
2019-04-14T00:13:50.210Z,2.60
2019-04-14T00:16:20.718Z,2.07
2019-04-14T00:18:51.284Z,2.07
2019-04-14T00:21:23.641Z,2.10
2019-04-14T00:23:54.442Z,2.10
2019-04-14T00:26:27.429Z,2.20
2019-04-14T00:29:00.944Z,2.50
2019-04-14T00:31:32.475Z,2.43
2019-04-14T00:34:07.286Z,2.13
2019-04-14T00:36:50.865Z,2.20
2019-04-14T00:39:31.543Z,2.30
2019-04-14T00:42:21.230Z,2.30
2019-04-14T00:44:58.286Z,2.40
2019-04-14T00:47:39.222Z,2.40
2019-04-14T00:50:08.285Z,2.53
2019-04-14T00:52:39.430Z,2.40
2019-04-14T00:55:09.869Z,2.50
2019-04-14T00:57:40.294Z,2.40
2019-04-14T01:00:15.769Z,2.23
2019-04-14T01:02:45.095Z,2.40
2019-04-14T01:05:17.438Z,2.10
2019-04-14T01:07:50.088Z,2.80
2019-04-14T01:10:23.589Z,2.47
2019-04-14T01:12:54.346Z,2.30
2019-04-14T01:15:26.717Z,2.37
2019-04-14T01:17:57.206Z,2.30
2019-04-14T01:20:30.185Z,2.40
2019-04-14T01:23:02.092Z,2.50
2019-04-14T01:25:32.507Z,2.40
2019-04-14T01:28:02.858Z,2.40
2019-04-14T01:30:33.598Z,2.20
2019-04-14T01:33:05.469Z,2.70
2019-04-14T01:35:36.364Z,2.50
2019-04-14T01:38:08.035Z,2.47
2019-04-14T01:40:38.844Z,2.50
2019-04-14T01:43:10.295Z,2.37
2019-04-14T01:45:40.672Z,2.37
2019-04-14T01:48:14.837Z,2.67
2019-04-14T01:51:07.601Z,2.50
2019-04-14T01:53:57.484Z,2.70
2019-04-14T01:56:47.159Z,2.47
2019-04-14T01:59:20.481Z,2.27
2019-04-14T02:01:54.960Z,2.30
2019-04-14T02:04:26.790Z,2.63
2019-04-14T02:06:57.446Z,2.33
2019-04-14T02:09:27.888Z,2.30
2019-04-14T02:12:03.754Z,2.37
2019-04-14T02:14:34.654Z,2.60
2019-04-14T02:17:06.445Z,2.70
2019-04-14T02:19:39.267Z,2.30
2019-04-14T02:22:09.845Z,2.40
2019-04-14T02:24:41.627Z,2.60
2019-04-14T02:27:12.272Z,2.20
2019-04-14T02:29:42.967Z,2.50
2019-04-14T02:32:42.499Z,2.30
2019-04-14T02:35:13.247Z,2.13
2019-04-14T02:37:49.121Z,2.60
2019-04-14T02:40:18.158Z,2.30
2019-04-14T02:42:46.499Z,2.60
2019-04-14T02:45:28.252Z,2.37
2019-04-14T02:48:03.321Z,2.30
2019-04-14T02:50:26.308Z,2.47
2019-04-14T02:55:37.300Z,2.53
2019-04-14T02:58:16.209Z,2.50
2019-04-14T03:00:42.105Z,2.50
2019-04-14T03:03:16.875Z,2.40
2019-04-14T03:08:25.655Z,2.73
2019-04-14T03:10:55.851Z,2.73
2019-04-14T03:15:55.854Z,2.60
2019-04-14T03:18:52.694Z,2.53
2019-04-14T03:24:42.223Z,2.70
2019-04-14T03:27:48.243Z,2.63
2019-04-14T03:30:36.521Z,2.70
2019-04-14T03:37:54.076Z,2.60
2019-04-14T03:40:25.897Z,2.70
2019-04-14T03:43:04.066Z,2.53
2019-04-14T03:45:36.411Z,2.60
2019-04-14T03:48:37.583Z,2.60
2019-04-14T03:50:36.826Z,2.77
2019-04-14T03:55:55.339Z,2.40
2019-04-14T03:58:22.667Z,2.37
2019-04-14T04:00:53.347Z,2.80
2019-04-14T04:03:24.062Z,2.83
2019-04-14T04:05:54.416Z,2.77
2019-04-14T04:08:26.945Z,2.50
2019-04-14T04:10:59.794Z,2.53
2019-04-14T04:13:30.356Z,2.40
2019-04-14T04:16:29.154Z,2.50
2019-04-14T04:19:10.501Z,2.37
2019-04-14T04:22:02.165Z,2.47
2019-04-14T04:24:38.889Z,2.87
2019-04-14T04:27:24.393Z,2.53
2019-04-14T04:30:12.269Z,2.50
2019-04-14T04:33:08.709Z,2.40
2019-04-14T04:36:05.623Z,2.40
2019-04-14T04:38:59.700Z,2.50
2019-04-14T04:41:29.828Z,2.40
2019-04-14T04:44:00.706Z,2.33
2019-04-14T04:46:31.524Z,2.40
2019-04-14T04:49:09.601Z,2.70
2019-04-14T04:51:34.087Z,2.57
2019-04-14T04:54:04.441Z,2.43
2019-04-14T04:56:34.768Z,2.60
2019-04-14T04:59:05.467Z,2.77
2019-04-14T05:01:38.597Z,2.23
2019-04-14T05:04:09.103Z,2.53
2019-04-14T05:07:16.546Z,2.30
2019-04-14T05:10:21.734Z,2.50
2019-04-14T05:13:14.286Z,2.33
2019-04-14T05:15:48.811Z,2.30
2019-04-14T05:18:24.721Z,2.60
2019-04-14T05:20:55.460Z,2.37
2019-04-14T05:23:25.989Z,2.60
2019-04-14T05:25:56.693Z,2.30
2019-04-14T05:28:27.101Z,2.30
2019-04-14T05:30:57.368Z,2.33
2019-04-14T05:33:29.412Z,1.97
2019-04-14T05:35:59.929Z,2.30
2019-04-14T05:38:32.167Z,2.53
2019-04-14T05:41:04.726Z,2.53
2019-04-14T05:43:43.478Z,2.30
2019-04-14T05:46:07.778Z,2.40
2019-04-14T05:48:38.295Z,2.60
2019-04-14T05:51:08.857Z,2.40
2019-04-14T05:53:39.545Z,2.40
2019-04-14T05:56:14.364Z,2.30
2019-04-14T05:58:45.177Z,2.47
2019-04-14T06:01:16.061Z,2.47
2019-04-14T06:03:49.586Z,2.20
2019-04-14T06:06:19.957Z,2.17
2019-04-14T06:08:51.369Z,2.50
2019-04-14T06:11:23.949Z,2.50
2019-04-14T06:13:54.308Z,2.30
2019-04-14T06:16:24.632Z,2.30
2019-04-14T06:18:55.143Z,2.37
2019-04-14T06:21:29.007Z,2.50
2019-04-14T06:23:59.432Z,2.30
2019-04-14T06:26:30.102Z,1.93
2019-04-14T06:29:00.425Z,2.40
2019-04-14T06:31:45.409Z,2.43
2019-04-14T06:34:27.951Z,2.20
2019-04-14T06:37:20.893Z,2.40
2019-04-14T06:39:52.509Z,2.27
2019-04-14T06:42:22.939Z,2.10
2019-04-14T06:44:53.241Z,2.20
2019-04-14T06:47:24.821Z,2.57
2019-04-14T06:49:57.703Z,2.10
2019-04-14T06:52:27.666Z,2.10
2019-04-14T06:54:58.033Z,2.33
2019-04-14T06:57:28.323Z,2.13
2019-04-14T07:00:00.321Z,2.00
2019-04-14T07:02:30.791Z,2.10
2019-04-14T07:05:02.230Z,2.33
2019-04-14T07:07:35.394Z,2.10
2019-04-14T07:10:07.114Z,2.43
2019-04-14T07:12:37.470Z,2.10
2019-04-14T07:15:10.657Z,2.13
2019-04-14T07:17:40.984Z,2.20
2019-04-14T07:20:11.661Z,2.30
2019-04-14T07:22:42.094Z,2.20
2019-04-14T07:25:12.411Z,2.10
2019-04-14T07:27:42.719Z,2.10
2019-04-14T07:30:47.376Z,2.10
2019-04-14T07:33:43.171Z,1.93
2019-04-14T07:36:41.124Z,2.20
2019-04-14T07:39:29.779Z,2.00
2019-04-14T07:42:10.340Z,2.13
2019-04-14T07:44:58.940Z,1.90
2019-04-14T07:47:48.282Z,2.17
2019-04-14T07:50:30.725Z,1.97
2019-04-14T07:53:19.357Z,1.90
2019-04-14T07:56:01.419Z,1.90
2019-04-14T07:58:55.388Z,2.10
2019-04-14T08:01:35.532Z,2.10
2019-04-14T08:04:14.595Z,1.90
2019-04-14T08:06:52.407Z,1.98
2019-04-14T08:09:22.860Z,1.80
2019-04-14T08:11:56.649Z,2.25
2019-04-14T08:14:27.060Z,2.00
2019-04-14T08:16:59.131Z,1.80
2019-04-14T08:19:29.524Z,1.90
2019-04-14T08:22:05.538Z,1.80
2019-04-14T08:24:37.332Z,1.77
2019-04-14T08:27:07.825Z,2.10
2019-04-14T08:29:39.353Z,1.92
2019-04-14T08:32:11.712Z,1.70
2019-04-14T08:34:42.033Z,1.85
2019-04-14T08:37:12.558Z,2.00
2019-04-14T08:39:44.140Z,1.82
2019-04-14T08:42:33.968Z,1.62
2019-04-14T08:45:13.103Z,1.75
2019-04-14T08:47:56.568Z,1.60
2019-04-14T08:50:49.227Z,1.80
2019-04-14T08:53:34.148Z,1.80
2019-04-14T08:56:17.142Z,2.35
2019-04-14T08:58:56.665Z,1.70
2019-04-14T09:01:41.256Z,1.65
2019-04-14T09:04:28.949Z,1.60
2019-04-14T09:07:19.012Z,2.05
2019-04-14T09:09:58.101Z,1.90
2019-04-14T09:12:32.109Z,1.92
2019-04-14T09:15:05.314Z,2.00
2019-04-14T09:17:37.175Z,1.98
2019-04-14T09:20:08.445Z,2.00
2019-04-14T09:22:38.841Z,2.33
2019-04-14T09:25:09.164Z,2.10
2019-04-14T09:27:39.458Z,2.20
2019-04-14T09:30:10.386Z,2.30
2019-04-14T09:32:40.724Z,2.30
2019-04-14T09:35:11.030Z,2.10
2019-04-14T09:37:41.844Z,2.45
2019-04-14T09:40:12.154Z,2.25
2019-04-14T09:42:46.546Z,2.30
2019-04-14T09:45:16.924Z,2.20
2019-04-14T09:47:48.072Z,2.20
2019-04-14T09:50:19.690Z,2.40
2019-04-14T09:52:50.385Z,2.60
2019-04-14T09:55:23.400Z,2.60
2019-04-14T09:57:52.852Z,2.33
2019-04-14T10:00:23.437Z,2.43
2019-04-14T10:02:59.697Z,2.40
2019-04-14T10:05:30.059Z,2.10
2019-04-14T10:08:00.371Z,2.33
2019-04-14T10:10:30.700Z,2.20
2019-04-14T10:13:02.637Z,2.57
2019-04-14T10:15:33.574Z,2.13
2019-04-14T10:18:04.165Z,2.20
2019-04-14T10:20:34.678Z,2.20
2019-04-14T10:23:05.265Z,2.30
2019-04-14T10:25:36.338Z,2.20
2019-04-14T10:28:06.791Z,2.40
2019-04-14T10:30:37.082Z,2.47
2019-04-14T10:33:08.856Z,3.73
2019-04-14T10:35:41.231Z,2.37
2019-04-14T10:38:11.651Z,2.30
2019-04-14T10:40:42.332Z,2.30
2019-04-14T10:43:12.701Z,2.17
2019-04-14T10:45:42.999Z,2.07
2019-04-14T10:48:13.347Z,2.30
2019-04-14T10:50:43.606Z,2.15
2019-04-14T10:53:14.241Z,2.15
2019-04-14T10:55:44.587Z,2.12
2019-04-14T10:58:16.943Z,2.20
2019-04-14T11:00:47.950Z,2.10
2019-04-14T11:03:18.296Z,2.30
2019-04-14T11:05:57.891Z,2.00
2019-04-14T11:08:28.754Z,2.55
2019-04-14T11:10:59.072Z,2.50
2019-04-14T11:13:29.375Z,2.60
2019-04-14T11:15:59.822Z,2.22
2019-04-14T11:18:30.102Z,2.25
2019-04-14T11:21:02.520Z,2.20
2019-04-14T11:23:33.146Z,2.08
2019-04-14T11:26:04.679Z,2.20
2019-04-14T11:28:34.993Z,3.00
2019-04-14T11:31:06.123Z,2.20
2019-04-14T11:33:56.562Z,2.10
2019-04-14T11:36:46.596Z,2.27
2019-04-14T11:39:17.573Z,2.12
2019-04-14T11:41:49.970Z,1.95
2019-04-14T11:44:20.438Z,2.08
2019-04-14T11:46:54.061Z,2.05
2019-04-14T11:49:24.388Z,2.20
2019-04-14T11:51:55.843Z,2.10
2019-04-14T11:54:26.405Z,2.60
2019-04-14T11:57:00.446Z,2.20
2019-04-14T11:59:42.807Z,2.02
2019-04-14T12:02:28.626Z,2.25
2019-04-14T12:05:05.637Z,2.40
2019-04-14T12:07:58.200Z,2.50
2019-04-14T12:10:30.864Z,1.98
2019-04-14T12:13:01.265Z,2.55
2019-04-14T12:15:34.333Z,2.30
2019-04-14T12:18:04.621Z,2.30
2019-04-14T12:20:38.969Z,2.52
2019-04-14T12:23:16.035Z,2.30
2019-04-14T12:25:46.306Z,3.22
2019-04-14T12:28:19.407Z,2.50
2019-04-14T12:30:53.242Z,2.55
2019-04-14T12:33:24.567Z,2.30
2019-04-14T12:35:54.890Z,2.47
2019-04-14T12:38:25.355Z,2.22
2019-04-14T12:40:57.807Z,2.40
2019-04-14T12:43:36.956Z,2.35
2019-04-14T12:46:26.279Z,2.33
2019-04-14T12:49:13.782Z,2.30
2019-04-14T12:52:03.308Z,2.47
2019-04-14T12:54:35.629Z,2.40
2019-04-14T12:57:06.011Z,2.50
2019-04-14T12:59:37.034Z,2.25
2019-04-14T13:02:29.633Z,2.50
2019-04-14T13:05:00.249Z,2.12
2019-04-14T13:07:31.258Z,2.50
2019-04-14T13:10:03.678Z,2.80
2019-04-14T13:12:34.041Z,2.50
2019-04-14T13:15:04.787Z,2.17
2019-04-14T13:17:36.199Z,2.40
2019-04-14T13:20:08.515Z,2.27
2019-04-14T13:22:38.943Z,2.47
2019-04-14T13:25:12.281Z,2.60
2019-04-14T13:27:43.542Z,2.60
2019-04-14T13:30:19.718Z,2.35
2019-04-14T13:32:51.623Z,2.50
2019-04-14T13:35:22.312Z,2.50
2019-04-14T13:37:53.946Z,2.55
2019-04-14T13:40:24.358Z,2.40
2019-04-14T13:42:55.590Z,2.10
2019-04-14T13:45:26.065Z,2.50
2019-04-14T13:48:00.382Z,1.80
2019-04-14T13:50:31.374Z,2.15
2019-04-14T13:53:06.616Z,2.12
2019-04-14T13:55:40.001Z,2.08
2019-04-14T13:58:13.452Z,2.17
2019-04-14T14:00:46.070Z,2.08
2019-04-14T14:03:16.545Z,2.40
2019-04-14T14:05:47.095Z,2.62
2019-04-14T14:08:17.408Z,2.35
2019-04-14T14:10:48.260Z,2.00
2019-04-14T14:13:29.457Z,2.58
2019-04-14T14:16:23.532Z,2.65
2019-04-14T14:19:01.044Z,2.98
2019-04-14T14:21:50.294Z,2.72
2019-04-14T14:24:38.171Z,2.40
2019-04-14T14:27:09.716Z,2.45
2019-04-14T14:29:40.687Z,2.60
2019-04-14T14:32:22.921Z,2.77
2019-04-14T14:34:54.067Z,2.80
2019-04-14T14:37:24.465Z,2.90
2019-04-14T14:39:55.230Z,2.60
2019-04-14T14:42:27.747Z,3.35
2019-04-14T14:45:26.721Z,2.45
2019-04-14T14:48:18.183Z,2.52
2019-04-14T14:51:20.298Z,2.60
2019-04-14T14:53:51.021Z,2.50
2019-04-14T14:56:22.018Z,2.30
2019-04-14T14:58:52.871Z,2.30
2019-04-14T15:01:24.726Z,2.33
2019-04-14T15:03:55.129Z,2.22
2019-04-14T15:06:26.967Z,2.12
2019-04-14T15:08:59.111Z,2.02
2019-04-14T15:11:29.826Z,2.12
2019-04-14T15:14:00.258Z,2.37
2019-04-14T15:16:30.666Z,2.42
2019-04-14T15:19:01.044Z,2.25
2019-04-14T15:21:32.721Z,2.47
2019-04-14T15:24:03.065Z,2.20
2019-04-14T15:26:34.977Z,2.15
2019-04-14T15:29:12.013Z,2.30
2019-04-14T15:31:42.380Z,2.58
2019-04-14T15:34:12.769Z,2.42
2019-04-14T15:36:43.209Z,2.40
2019-04-14T15:39:13.549Z,2.55
2019-04-14T15:41:44.658Z,2.45
2019-04-14T15:44:20.353Z,2.00
2019-04-14T15:46:58.521Z,2.72
2019-04-14T15:49:30.030Z,2.60
2019-04-14T15:52:00.369Z,3.02
2019-04-14T15:54:30.799Z,2.33
2019-04-14T15:57:22.092Z,2.40
2019-04-14T16:00:15.594Z,2.40
2019-04-14T16:03:11.524Z,2.55
2019-04-14T16:05:49.779Z,2.27
2019-04-14T16:08:29.171Z,2.37
2019-04-14T16:11:05.010Z,2.40
2019-04-14T16:13:54.624Z,2.60
2019-04-14T16:16:43.892Z,2.00
2019-04-14T16:19:33.207Z,2.50
2019-04-14T16:22:04.617Z,2.50
2019-04-14T16:24:35.319Z,2.77
2019-04-14T16:27:25.779Z,2.30
2019-04-14T16:30:15.190Z,2.60
2019-04-14T16:33:07.067Z,2.20
2019-04-14T16:35:38.181Z,2.50
2019-04-14T16:38:08.484Z,2.57
2019-04-14T16:40:40.992Z,2.40
2019-04-14T16:43:12.893Z,2.80
2019-04-14T16:45:43.300Z,2.60
2019-04-14T16:48:15.655Z,2.43
2019-04-14T16:50:47.707Z,2.50
2019-04-14T16:53:43.119Z,2.40
2019-04-14T16:56:32.467Z,2.47
2019-04-14T16:59:06.406Z,2.50
2019-04-14T17:01:43.008Z,2.37
2019-04-14T17:04:13.405Z,3.57
2019-04-14T17:06:43.794Z,2.50
2019-04-14T17:09:14.652Z,2.43
2019-04-14T17:11:45.519Z,2.93
2019-04-14T17:14:25.533Z,2.60
2019-04-14T17:17:17.583Z,2.43
2019-04-14T17:19:57.312Z,2.30
2019-04-14T17:22:42.916Z,2.20
2019-04-14T17:25:42.777Z,2.50
2019-04-14T17:28:26.794Z,2.40
2019-04-14T17:31:21.930Z,2.67
2019-04-14T17:34:10.798Z,3.17
2019-04-14T17:36:50.954Z,3.07
2019-04-14T17:39:37.766Z,2.63
2019-04-14T17:42:36.255Z,2.37
2019-04-14T17:45:29.126Z,2.40
2019-04-14T17:48:27.454Z,2.63
2019-04-14T17:51:21.989Z,3.40
2019-04-14T17:54:04.588Z,3.80
2019-04-14T17:56:49.032Z,3.20
2019-04-14T17:59:38.694Z,3.53
2019-04-14T18:02:28.810Z,3.43
2019-04-14T18:05:06.307Z,3.23
2019-04-14T18:07:55.132Z,3.57
2019-04-14T18:10:40.991Z,4.97
2019-04-14T18:13:26.313Z,3.67
2019-04-14T18:16:10.969Z,4.30
2019-04-14T18:18:59.878Z,4.10
2019-04-14T18:21:30.611Z,4.80
2019-04-14T18:24:10.470Z,4.30
2019-04-14T18:26:40.838Z,4.33
2019-04-14T18:29:28.930Z,4.73
2019-04-14T18:32:14.116Z,5.27
2019-04-14T18:35:06.876Z,4.70
2019-04-14T18:37:56.294Z,4.63
2019-04-14T18:40:47.634Z,4.50
2019-04-14T18:43:37.532Z,4.73
2019-04-14T18:46:29.677Z,4.60
2019-04-14T18:49:19.695Z,4.90
2019-04-14T18:52:13.488Z,4.63
2019-04-14T18:55:00.822Z,4.90
2019-04-14T18:57:43.715Z,6.50
2019-04-14T19:00:27.825Z,6.97
2019-04-14T19:02:58.433Z,6.90
2019-04-14T19:05:29.067Z,7.20
2019-04-14T19:07:59.506Z,7.87
2019-04-14T19:10:29.845Z,7.90
2019-04-14T19:13:07.923Z,7.70
2019-04-14T19:16:07.447Z,7.50
2019-04-14T19:18:51.867Z,7.37
2019-04-14T19:21:27.263Z,6.60
2019-04-14T19:23:57.608Z,6.57
2019-04-14T19:26:28.298Z,6.57
2019-04-14T19:29:00.837Z,6.73
2019-04-14T19:31:32.587Z,5.87
2019-04-14T19:34:04.938Z,6.30
2019-04-14T19:36:36.513Z,6.03
2019-04-14T19:39:10.688Z,5.80
2019-04-14T19:41:41.015Z,5.47
2019-04-14T19:44:11.780Z,5.90
2019-04-14T19:46:42.180Z,5.47
2019-04-14T19:49:12.959Z,5.70
2019-04-14T19:51:44.724Z,6.03
2019-04-14T19:54:51.279Z,6.37
2019-04-14T19:57:21.664Z,6.97
2019-04-14T19:59:54.207Z,6.20
2019-04-14T20:02:30.263Z,6.73
2019-04-14T20:05:00.669Z,7.10
2019-04-14T20:07:33.995Z,6.57
2019-04-14T20:10:08.063Z,6.03
2019-04-14T20:12:38.752Z,6.30
2019-04-14T20:15:11.647Z,6.80
2019-04-14T20:17:57.897Z,7.30
2019-04-14T20:20:39.724Z,7.00
2019-04-14T20:23:20.266Z,7.37
2019-04-14T20:26:28.889Z,7.47
2019-04-14T20:29:08.468Z,6.97
2019-04-14T20:32:02.670Z,7.53
2019-04-14T20:34:33.186Z,7.60
2019-04-14T20:37:03.428Z,7.33
2019-04-14T20:39:34.483Z,7.13
2019-04-14T20:42:07.309Z,6.77
2019-04-14T20:44:38.701Z,7.60
2019-04-14T20:47:10.607Z,7.37
2019-04-14T20:49:40.951Z,7.53
2019-04-14T20:52:13.324Z,7.30
2019-04-14T20:54:45.233Z,7.17
2019-04-14T20:57:15.688Z,7.33
2019-04-14T20:59:46.032Z,7.50
2019-04-14T21:02:47.897Z,6.53
2019-04-14T21:05:51.482Z,7.27
2019-04-14T21:08:50.664Z,7.40
2019-04-14T21:11:30.465Z,6.77
2019-04-14T21:14:17.523Z,7.10
2019-04-14T21:17:04.628Z,8.40
2019-04-14T21:19:43.898Z,7.97
2019-04-14T21:22:39.338Z,7.93
2019-04-14T21:25:18.486Z,7.37
2019-04-14T21:28:12.474Z,7.60
2019-04-14T21:31:02.164Z,8.03
2019-04-14T21:33:48.047Z,7.50
2019-04-14T21:36:25.976Z,7.90
2019-04-14T21:39:08.005Z,8.63
2019-04-14T21:41:41.225Z,7.50
2019-04-14T21:44:12.044Z,8.17
2019-04-14T21:46:42.627Z,8.77
2019-04-14T21:49:13.059Z,8.20
2019-04-14T21:52:11.643Z,7.77
2019-04-14T21:54:44.483Z,7.67
2019-04-14T21:57:32.581Z,7.70
2019-04-14T22:00:43.451Z,7.40
2019-04-14T22:03:25.829Z,7.33
2019-04-14T22:06:05.245Z,7.30
2019-04-14T22:08:39.857Z,7.17
2019-04-14T22:11:25.068Z,7.17
2019-04-14T22:13:55.479Z,7.37
2019-04-14T22:16:27.288Z,7.40
2019-04-14T22:19:00.002Z,8.00
2019-04-14T22:21:30.304Z,7.07
2019-04-14T22:24:02.762Z,7.27
2019-04-14T22:26:33.142Z,7.20
2019-04-14T22:29:04.558Z,7.80
2019-04-14T22:31:34.919Z,7.30
2019-04-14T22:34:09.192Z,7.13
2019-04-14T22:36:39.506Z,7.13
2019-04-14T22:39:14.209Z,7.27
2019-04-14T22:41:46.310Z,7.13
2019-04-14T22:44:16.935Z,7.03
2019-04-14T22:46:47.393Z,6.90
2019-04-14T22:49:20.968Z,7.37
2019-04-14T22:51:54.002Z,7.70
2019-04-14T22:54:24.652Z,6.87
2019-04-14T22:56:54.946Z,6.90
2019-04-14T22:59:25.360Z,7.43
2019-04-14T23:02:04.047Z,7.20
2019-04-14T23:05:02.262Z,7.47
2019-04-14T23:07:51.637Z,7.40
2019-04-14T23:10:31.443Z,7.53
2019-04-14T23:13:13.184Z,7.13
2019-04-14T23:16:02.651Z,7.47
2019-04-14T23:18:43.577Z,7.17
2019-04-14T23:21:31.561Z,7.57
2019-04-14T23:24:29.972Z,8.23
2019-04-14T23:27:00.451Z,7.57
2019-04-14T23:29:31.241Z,7.90
2019-04-14T23:32:01.576Z,7.70
2019-04-14T23:34:31.923Z,7.87
2019-04-14T23:37:03.450Z,7.53
2019-04-14T23:39:36.470Z,7.03
2019-04-14T23:42:06.889Z,7.83
2019-04-14T23:44:38.191Z,7.13
2019-04-14T23:47:08.887Z,6.70
2019-04-14T23:49:40.732Z,8.00
2019-04-14T23:52:11.043Z,8.13
2019-04-14T23:54:41.354Z,7.33
2019-04-14T23:57:12.066Z,7.77
2019-04-14T23:59:42.374Z,7.17
